createdAt,value
2023-04-04T07:46:01.719Z,99842.59
2023-04-04T07:48:31.778Z,99841.40
2023-04-04T07:51:04.726Z,99844.87
2023-04-04T07:53:33.135Z,99848.34
2023-04-04T07:56:06.694Z,99844.95
2023-04-04T07:58:37.699Z,99837.30
2023-04-04T08:01:06.190Z,99833.11
2023-04-04T08:03:36.971Z,99833.86
2023-04-04T08:06:06.187Z,99824.27
2023-04-04T08:08:34.346Z,99825.67
2023-04-04T08:11:04.049Z,99825.26
2023-04-04T08:13:32.914Z,99824.19
2023-04-04T08:16:01.541Z,99820.52
2023-04-04T08:18:32.063Z,99824.49
2023-04-04T08:21:01.030Z,99823.83
2023-04-04T08:23:30.847Z,99827.21
2023-04-04T08:26:01.173Z,99828.41
2023-04-04T08:28:29.576Z,99819.55
2023-04-04T08:30:58.040Z,99817.93
2023-04-04T08:33:37.639Z,99817.52
2023-04-04T08:36:19.005Z,99815.68
2023-04-04T08:38:47.851Z,99807.27
2023-04-04T08:41:16.342Z,99812.05
2023-04-04T08:43:54.400Z,99819.70
2023-04-04T08:59:23.277Z,99819.80
2023-04-04T09:02:09.079Z,99814.95
2023-04-04T09:04:38.205Z,99814.69
2023-04-04T09:07:07.244Z,99818.84
2023-04-04T09:09:38.066Z,99823.52
2023-04-04T09:12:06.349Z,99825.52
2023-04-04T09:14:34.730Z,99823.70
2023-04-04T09:17:03.687Z,99827.31
2023-04-04T09:19:31.950Z,99826.04
2023-04-04T09:22:00.605Z,99822.36
2023-04-04T09:24:42.291Z,99816.08
2023-04-04T09:27:11.512Z,99814.98
2023-04-04T09:29:40.689Z,99815.79
2023-04-04T09:32:18.284Z,99815.82
2023-04-04T09:34:47.794Z,99813.16
2023-04-04T09:37:17.011Z,99816.00
2023-04-04T09:39:45.780Z,99816.80
2023-04-04T09:42:14.801Z,99811.69
2023-04-04T09:44:47.193Z,99815.52
2023-04-04T09:50:01.525Z,99812.39
2023-04-04T09:52:33.376Z,99816.98
2023-04-04T09:55:04.350Z,99814.34
2023-04-04T09:57:34.741Z,99810.94
2023-04-04T10:00:04.860Z,99813.39
2023-04-04T10:02:39.260Z,99817.09
2023-04-04T10:05:10.402Z,99811.41
2023-04-04T10:07:40.092Z,99811.14
2023-04-04T10:10:12.014Z,99805.22
2023-04-04T10:12:40.532Z,99798.80
2023-04-04T10:15:10.540Z,99794.53
2023-04-04T10:17:41.832Z,99788.67
2023-04-04T10:20:11.104Z,99788.80
2023-04-04T10:22:47.352Z,99790.41
2023-04-04T10:25:15.843Z,99791.02
2023-04-04T10:27:44.224Z,99784.69
2023-04-04T10:30:13.941Z,99782.52
2023-04-04T10:32:53.143Z,99779.70
2023-04-04T10:35:22.761Z,99781.88
2023-04-04T10:37:58.568Z,99781.62
2023-04-04T10:40:29.267Z,99776.17
2023-04-04T10:42:57.863Z,99771.94
2023-04-04T10:45:26.166Z,99769.73
2023-04-04T10:47:54.463Z,99778.52
2023-04-04T10:50:29.390Z,99776.52
2023-04-04T10:53:01.234Z,99780.36
2023-04-04T10:55:29.799Z,99784.20
2023-04-04T10:57:58.307Z,99782.58
2023-04-04T11:00:27.687Z,99785.25
2023-04-04T11:03:02.064Z,99785.96
2023-04-04T11:05:51.932Z,99776.76
2023-04-04T11:08:25.401Z,99771.73
2023-04-04T11:10:54.704Z,99771.05
2023-04-04T11:13:29.530Z,99763.81
2023-04-04T11:16:16.442Z,99771.24
2023-04-04T11:18:51.057Z,99767.70
2023-04-04T11:21:20.789Z,99771.91
2023-04-04T11:23:49.314Z,99779.02
2023-04-04T11:26:27.844Z,99782.83
2023-04-04T11:28:57.044Z,99775.25
2023-04-04T11:31:33.052Z,99777.45
2023-04-04T11:34:08.432Z,99778.52
2023-04-04T11:36:40.094Z,99779.30
2023-04-04T11:39:19.952Z,99778.76
2023-04-04T11:41:57.660Z,99775.34
2023-04-04T11:44:30.791Z,99773.93
2023-04-04T11:47:11.742Z,99772.48
2023-04-04T11:49:42.687Z,99770.21
2023-04-04T11:52:17.903Z,99766.66
2023-04-04T11:54:49.203Z,99762.83
2023-04-04T11:57:18.938Z,99765.81
2023-04-04T11:59:54.374Z,99770.51
2023-04-04T12:02:27.781Z,99770.86
2023-04-04T12:04:56.443Z,99767.52
2023-04-04T12:07:27.181Z,99765.36
2023-04-04T12:09:57.928Z,99763.51
2023-04-04T12:12:27.929Z,99758.48
2023-04-04T12:15:06.657Z,99760.16
2023-04-04T12:17:40.953Z,99761.35
2023-04-04T12:20:14.284Z,99759.52
2023-04-04T12:22:45.811Z,99764.82
2023-04-04T12:25:14.506Z,99758.55
2023-04-04T12:27:45.178Z,99762.11
2023-04-04T12:30:16.137Z,99760.59
2023-04-04T12:32:48.230Z,99765.59
2023-04-04T12:35:16.778Z,99757.34
2023-04-04T12:38:07.465Z,99751.34
2023-04-04T12:40:38.881Z,99749.29
